createdAt,value
2019-01-12T00:00:08.575Z,998.1
2019-01-12T00:01:18.844Z,998
2019-01-12T00:02:30.287Z,998.01
2019-01-12T00:03:40.354Z,997.99
2019-01-12T00:04:50.453Z,997.86
2019-01-12T00:06:00.844Z,997.92
2019-01-12T00:07:10.943Z,997.96
2019-01-12T00:08:21.008Z,997.95
2019-01-12T00:09:31.086Z,997.87
2019-01-12T00:10:41.188Z,997.88
2019-01-12T00:11:50.750Z,997.93
2019-01-12T00:13:00.597Z,997.88
2019-01-12T00:14:10.416Z,997.84
2019-01-12T00:15:20.236Z,997.79
2019-01-12T00:16:30.326Z,997.84
2019-01-12T00:17:40.245Z,997.79
2019-01-12T00:18:50.044Z,997.8
2019-01-12T00:20:00.219Z,997.73
2019-01-12T00:21:10.335Z,997.69
2019-01-12T00:22:20.473Z,997.7
2019-01-12T00:23:30.611Z,997.68
2019-01-12T00:24:41.179Z,997.72
2019-01-12T00:25:51.260Z,997.76
2019-01-12T00:27:01.798Z,997.86
2019-01-12T00:28:11.869Z,997.77
2019-01-12T00:29:22.014Z,997.8
2019-01-12T00:30:31.831Z,997.66
2019-01-12T00:31:41.890Z,997.79
2019-01-12T00:32:51.945Z,997.8
2019-01-12T00:34:02.624Z,997.77
2019-01-12T00:35:12.688Z,997.8
2019-01-12T00:36:22.765Z,997.79
2019-01-12T00:37:32.903Z,997.82
2019-01-12T00:38:42.966Z,997.74
2019-01-12T00:39:53.097Z,997.83
2019-01-12T00:41:02.949Z,997.79
2019-01-12T00:42:14.325Z,997.79
2019-01-12T00:43:23.873Z,997.86
2019-01-12T00:44:33.935Z,997.85
2019-01-12T00:45:43.997Z,997.83
2019-01-12T00:46:54.507Z,997.81
2019-01-12T00:48:05.711Z,997.82
2019-01-12T00:49:15.653Z,997.94
2019-01-12T00:50:25.532Z,997.82
2019-01-12T00:51:35.619Z,997.73
2019-01-12T00:52:45.432Z,997.83
2019-01-12T00:53:55.505Z,997.86
2019-01-12T00:55:05.687Z,997.82
2019-01-12T00:56:15.780Z,997.94
2019-01-12T00:57:25.849Z,998.01
2019-01-12T00:58:35.890Z,997.96
2019-01-12T00:59:45.958Z,997.91
2019-01-12T01:00:56.039Z,998.02
2019-01-12T01:02:06.119Z,997.97
2019-01-12T01:03:16.179Z,997.94
2019-01-12T01:04:25.996Z,998.05
2019-01-12T01:05:35.812Z,998.14
2019-01-12T01:06:45.615Z,998.06
2019-01-12T01:07:55.441Z,997.95
2019-01-12T01:09:05.602Z,998.04
2019-01-12T01:10:15.740Z,998
2019-01-12T01:11:25.812Z,998.17
2019-01-12T01:12:35.877Z,998.12
2019-01-12T01:13:46.000Z,998.14
2019-01-12T01:14:56.102Z,998.11
2019-01-12T01:16:06.161Z,998.12
2019-01-12T01:17:16.468Z,998.11
2019-01-12T01:18:26.528Z,998.06
2019-01-12T01:19:36.616Z,998.12
2019-01-12T01:20:46.696Z,998
2019-01-12T01:21:56.803Z,998.11
2019-01-12T01:23:06.590Z,998.05
2019-01-12T01:24:16.379Z,998
2019-01-12T01:25:26.486Z,998.1
2019-01-12T01:26:36.600Z,998.03
2019-01-12T01:27:46.644Z,998
2019-01-12T01:28:56.713Z,998
2019-01-12T01:30:08.570Z,998.15
2019-01-12T01:31:18.880Z,998.02
2019-01-12T01:32:28.951Z,998.05
2019-01-12T01:33:39.086Z,998.27
2019-01-12T01:34:49.146Z,998.07
2019-01-12T01:35:58.971Z,998.07
2019-01-12T01:37:09.082Z,998
2019-01-12T01:38:18.882Z,998.01
2019-01-12T01:39:28.953Z,997.96
2019-01-12T01:40:38.764Z,998.03
2019-01-12T01:41:48.828Z,997.99
2019-01-12T01:42:58.875Z,997.88
2019-01-12T01:44:09.018Z,998.01
2019-01-12T01:45:19.316Z,997.99
2019-01-12T01:46:28.905Z,997.96
2019-01-12T01:47:38.706Z,997.93
2019-01-12T01:48:48.474Z,997.91
2019-01-12T01:49:58.566Z,997.87
2019-01-12T01:51:09.563Z,997.82
2019-01-12T01:52:19.610Z,997.86
2019-01-12T01:53:29.430Z,997.73
2019-01-12T01:54:39.480Z,997.78
2019-01-12T01:55:55.932Z,997.8
2019-01-12T01:57:06.042Z,997.8
2019-01-12T01:58:15.651Z,997.89
2019-01-12T01:59:25.515Z,997.92
2019-01-12T02:00:35.420Z,997.85
2019-01-12T02:01:45.214Z,997.92
2019-01-12T02:02:55.049Z,997.82
2019-01-12T02:04:04.832Z,997.87
2019-01-12T02:05:14.898Z,997.83
2019-01-12T02:06:25.046Z,997.79
2019-01-12T02:07:34.849Z,997.81
2019-01-12T02:08:44.676Z,997.77
2019-01-12T02:09:55.035Z,997.75
2019-01-12T02:11:04.826Z,997.81
2019-01-12T02:12:14.876Z,997.7
2019-01-12T02:13:24.930Z,997.78
2019-01-12T02:14:34.501Z,997.71
2019-01-12T02:15:44.347Z,997.77
2019-01-12T02:16:54.152Z,997.75
2019-01-12T02:18:04.191Z,997.81
2019-01-12T02:19:14.013Z,997.78
2019-01-12T02:20:24.036Z,997.8
2019-01-12T02:21:34.091Z,997.82
2019-01-12T02:22:44.569Z,997.79
2019-01-12T02:23:54.382Z,997.79
2019-01-12T02:25:04.422Z,997.72
2019-01-12T02:26:14.534Z,997.75
2019-01-12T02:27:24.686Z,997.75
2019-01-12T02:28:34.739Z,997.77
2019-01-12T02:29:44.534Z,997.75
2019-01-12T02:30:54.335Z,997.86
2019-01-12T02:32:04.390Z,997.81
2019-01-12T02:33:14.191Z,997.8
2019-01-12T02:34:24.275Z,997.89
2019-01-12T02:35:34.570Z,997.72
2019-01-12T02:36:44.742Z,997.71
2019-01-12T02:37:54.882Z,997.86
2019-01-12T02:39:04.936Z,997.7
2019-01-12T02:40:14.594Z,997.77
2019-01-12T02:41:24.417Z,997.85
2019-01-12T02:42:33.973Z,997.83
2019-01-12T02:43:43.529Z,997.82
2019-01-12T02:44:53.321Z,997.79
2019-01-12T02:46:04.315Z,997.79
2019-01-12T02:47:14.384Z,997.73
2019-01-12T02:48:24.478Z,997.77
2019-01-12T02:49:34.543Z,997.78
2019-01-12T02:50:44.605Z,997.78
2019-01-12T02:51:54.402Z,997.66
2019-01-12T02:53:04.226Z,997.78
2019-01-12T02:54:14.323Z,997.79
2019-01-12T02:55:24.392Z,997.77
2019-01-12T02:56:34.460Z,997.7
2019-01-12T02:57:44.508Z,997.7
2019-01-12T02:58:54.566Z,997.72
2019-01-12T03:00:04.516Z,997.71
2019-01-12T03:01:14.895Z,997.67
2019-01-12T03:02:24.967Z,997.62
2019-01-12T03:03:35.037Z,997.69
2019-01-12T03:35:37.640Z,997.4
2019-01-12T03:36:48.057Z,997.34
2019-01-12T03:37:58.368Z,997.43
2019-01-12T03:39:10.691Z,997.31
2019-01-12T03:40:20.765Z,997.41
2019-01-12T03:41:30.905Z,997.31
2019-01-12T03:42:40.966Z,997.32
2019-01-12T03:43:51.014Z,997.28
2019-01-12T03:45:01.422Z,997.24
2019-01-12T03:46:11.475Z,997.26
2019-01-12T03:47:21.587Z,997.31
2019-01-12T03:48:31.658Z,997.35
2019-01-12T03:49:41.713Z,997.38
2019-01-12T03:50:51.244Z,997.34
2019-01-12T03:52:01.295Z,997.41
2019-01-12T03:53:11.471Z,997.23
2019-01-12T03:54:21.519Z,997.41
2019-01-12T03:55:31.576Z,997.36
2019-01-12T03:56:41.367Z,997.42
2019-01-12T03:57:51.403Z,997.38
2019-01-12T03:59:01.268Z,997.32
2019-01-12T04:00:11.128Z,997.4
2019-01-12T04:01:21.381Z,997.35
2019-01-12T04:02:31.474Z,997.26
2019-01-12T04:03:41.740Z,997.34
2019-01-12T04:04:51.558Z,997.31
2019-01-12T04:06:01.626Z,997.31
2019-01-12T04:07:11.701Z,997.42
2019-01-12T04:08:21.514Z,997.32
2019-01-12T04:09:31.559Z,997.4
2019-01-12T04:10:41.636Z,997.45
2019-01-12T04:11:51.709Z,997.37
2019-01-12T04:13:02.006Z,997.33
2019-01-12T04:14:12.048Z,997.33
2019-01-12T04:15:22.114Z,997.29
2019-01-12T04:16:32.277Z,997.35
2019-01-12T04:17:42.400Z,997.34
2019-01-12T04:18:52.191Z,997.5
2019-01-12T04:20:02.012Z,997.32
2019-01-12T04:21:12.067Z,997.37
2019-01-12T04:22:22.181Z,997.33
2019-01-12T04:23:32.252Z,997.27
2019-01-12T04:24:42.319Z,997.36
2019-01-12T04:25:52.585Z,997.36
2019-01-12T04:27:02.639Z,997.28
2019-01-12T04:28:12.758Z,997.35
2019-01-12T04:29:22.836Z,997.29
2019-01-12T04:30:32.912Z,997.26
2019-01-12T04:31:42.998Z,997.29
2019-01-12T04:32:52.814Z,997.36
2019-01-12T04:34:02.951Z,997.33
2019-01-12T04:35:13.013Z,997.29
2019-01-12T04:36:23.136Z,997.36
2019-01-12T04:37:33.443Z,997.29
2019-01-12T04:38:49.810Z,997.24
2019-01-12T04:39:59.456Z,997.22
2019-01-12T04:41:10.711Z,997.29
2019-01-12T04:42:20.519Z,997.23
2019-01-12T04:43:30.344Z,997.28
2019-01-12T04:44:40.418Z,997.19
2019-01-12T04:45:50.490Z,997.21
2019-01-12T04:47:00.332Z,997.25
2019-01-12T04:48:10.391Z,997.19
2019-01-12T04:49:20.447Z,997.17
2019-01-12T04:50:30.552Z,997.21
2019-01-12T04:51:40.642Z,997.23
2019-01-12T04:52:50.687Z,997.21
2019-01-12T04:54:00.996Z,997.3
2019-01-12T04:55:11.096Z,997.19
2019-01-12T04:56:21.167Z,997.29
2019-01-12T04:57:31.079Z,997.28
2019-01-12T04:58:41.258Z,997.29
2019-01-12T04:59:51.423Z,997.31
2019-01-12T05:01:01.631Z,997.19
2019-01-12T05:02:11.713Z,997.25
2019-01-12T05:03:21.595Z,997.34
2019-01-12T05:04:31.658Z,997.23
2019-01-12T05:05:41.776Z,997.31
2019-01-12T05:06:52.219Z,997.34
2019-01-12T05:08:03.587Z,997.26
2019-01-12T05:09:13.683Z,997.39
2019-01-12T05:10:23.782Z,997.31
2019-01-12T05:11:34.494Z,997.28
2019-01-12T05:12:44.600Z,997.27
2019-01-12T05:13:54.688Z,997.32
2019-01-12T05:15:04.490Z,997.33
2019-01-12T05:16:14.285Z,997.31
2019-01-12T05:17:24.585Z,997.29
2019-01-12T05:18:34.657Z,997.31
2019-01-12T05:19:45.028Z,997.31
2019-01-12T05:20:55.123Z,997.36
2019-01-12T05:22:04.966Z,997.3
2019-01-12T05:23:14.506Z,997.35
2019-01-12T05:24:24.059Z,997.33
2019-01-12T05:25:33.873Z,997.34
2019-01-12T05:26:51.706Z,997.31
2019-01-12T05:28:01.776Z,997.35
2019-01-12T05:29:11.853Z,997.32
2019-01-12T05:30:21.396Z,997.39
2019-01-12T05:31:31.478Z,997.39
2019-01-12T05:32:41.619Z,997.38
2019-01-12T05:33:51.670Z,997.38
2019-01-12T05:35:01.773Z,997.33
2019-01-12T05:36:12.249Z,997.27
2019-01-12T05:37:22.384Z,997.29
2019-01-12T05:38:32.537Z,997.24
2019-01-12T05:39:42.325Z,997.25
2019-01-12T05:40:52.146Z,997.22
2019-01-12T05:42:02.204Z,997.22
2019-01-12T05:43:12.023Z,997.29
2019-01-12T05:44:23.435Z,997.28
2019-01-12T05:45:33.719Z,997.35
2019-01-12T05:46:43.783Z,997.27
2019-01-12T05:47:53.593Z,997.35
2019-01-12T05:49:05.870Z,997.41
2019-01-12T05:50:16.023Z,997.36
2019-01-12T05:51:26.111Z,997.4
2019-01-12T05:52:35.962Z,997.38
2019-01-12T05:53:46.020Z,997.41
2019-01-12T05:54:55.571Z,997.42
2019-01-12T05:56:05.643Z,997.34
2019-01-12T05:57:15.962Z,997.31
2019-01-12T05:58:26.053Z,997.38
2019-01-12T05:59:35.868Z,997.44
2019-01-12T06:00:45.959Z,997.49
2019-01-12T06:01:56.001Z,997.4
2019-01-12T06:03:06.053Z,997.58
2019-01-12T06:04:15.849Z,997.48
2019-01-12T06:05:25.906Z,997.5
2019-01-12T06:06:35.711Z,997.49
2019-01-12T06:07:46.022Z,997.52
2019-01-12T06:08:55.816Z,997.51
2019-01-12T06:10:07.173Z,997.55
2019-01-12T06:11:17.780Z,997.52
2019-01-12T06:12:27.595Z,997.59
2019-01-12T06:13:37.654Z,997.55
2019-01-12T06:14:47.510Z,997.55
2019-01-12T06:15:57.757Z,997.48
2019-01-12T06:17:07.819Z,997.59
2019-01-12T06:18:17.872Z,997.64
2019-01-12T06:19:27.929Z,997.62
2019-01-12T06:20:37.995Z,997.6
2019-01-12T06:21:48.325Z,997.67
2019-01-12T06:22:58.432Z,997.63
2019-01-12T06:24:08.226Z,997.75
2019-01-12T06:25:18.271Z,997.66
2019-01-12T06:26:27.821Z,997.75
2019-01-12T06:27:37.879Z,997.74
2019-01-12T06:28:47.945Z,997.76
2019-01-12T06:29:58.779Z,997.83
2019-01-12T06:31:08.950Z,997.86
2019-01-12T06:32:19.090Z,997.78
2019-01-12T06:33:29.013Z,997.86
2019-01-12T06:34:38.841Z,997.85
2019-01-12T06:35:48.914Z,997.86
2019-01-12T06:36:59.227Z,997.89
2019-01-12T06:38:10.866Z,997.83
2019-01-12T06:39:20.915Z,997.82
2019-01-12T06:40:30.723Z,997.89
2019-01-12T06:41:40.758Z,997.82
2019-01-12T06:42:50.574Z,997.83
2019-01-12T06:44:00.783Z,997.87
2019-01-12T06:45:10.641Z,997.89
2019-01-12T06:46:20.967Z,997.86
2019-01-12T06:47:31.092Z,997.9
2019-01-12T06:48:41.553Z,997.87
2019-01-12T06:49:51.693Z,997.86
2019-01-12T06:51:03.655Z,997.87
2019-01-12T06:52:13.819Z,997.96
2019-01-12T06:53:23.880Z,997.98
2019-01-12T06:54:34.190Z,997.85
2019-01-12T06:55:43.991Z,997.92
2019-01-12T06:56:54.061Z,997.9
2019-01-12T06:58:04.127Z,997.93
2019-01-12T06:59:13.922Z,997.95
2019-01-12T07:00:24.083Z,997.87
2019-01-12T07:01:34.155Z,997.8
2019-01-12T07:02:44.196Z,997.91
2019-01-12T07:03:54.263Z,997.96
2019-01-12T07:05:04.322Z,997.92
2019-01-12T07:06:13.906Z,997.89
2019-01-12T07:07:23.708Z,998.05
2019-01-12T07:08:33.777Z,998.03
2019-01-12T07:09:43.890Z,998
2019-01-12T07:10:53.925Z,998.1
2019-01-12T07:12:03.977Z,998.07
2019-01-12T07:13:14.061Z,998.04
2019-01-12T07:14:24.104Z,998.13
2019-01-12T07:15:34.480Z,998.14
2019-01-12T07:16:44.836Z,998.04
2019-01-12T07:17:54.391Z,998.18
2019-01-12T07:19:11.745Z,998.08
2019-01-12T07:20:22.090Z,998.04
2019-01-12T07:21:32.137Z,998.09
2019-01-12T07:22:42.227Z,998.11
2019-01-12T07:23:54.107Z,998.19
2019-01-12T07:25:04.193Z,998.17
2019-01-12T07:26:17.579Z,998.12
2019-01-12T07:27:27.543Z,998.17
2019-01-12T07:28:37.611Z,998.22
2019-01-12T07:29:47.682Z,998.23
2019-01-12T07:30:57.485Z,998.38
2019-01-12T07:32:07.581Z,998.23
2019-01-12T07:33:17.968Z,998.16
2019-01-12T07:34:28.034Z,998.36
2019-01-12T07:35:38.108Z,998.32
2019-01-12T07:36:47.910Z,998.29
2019-01-12T07:37:57.977Z,998.38
2019-01-12T07:39:07.696Z,998.37
2019-01-12T07:40:17.556Z,998.46
2019-01-12T07:41:27.617Z,998.4
2019-01-12T07:42:37.718Z,998.41
2019-01-12T07:43:47.786Z,998.45
2019-01-12T07:44:57.588Z,998.4
2019-01-12T07:46:07.647Z,998.48
2019-01-12T07:47:17.707Z,998.45
2019-01-12T07:48:28.142Z,998.37
2019-01-12T07:49:38.195Z,998.46
2019-01-12T07:50:48.006Z,998.51
2019-01-12T07:51:58.063Z,998.49
2019-01-12T07:53:07.882Z,998.5
2019-01-12T07:54:17.956Z,998.49
2019-01-12T07:55:28.017Z,998.56
2019-01-12T07:56:38.142Z,998.51
2019-01-12T07:57:48.224Z,998.51
2019-01-12T07:58:58.378Z,998.5
2019-01-12T08:00:10.815Z,998.55
2019-01-12T08:01:21.054Z,998.55
2019-01-12T08:02:31.119Z,998.52
2019-01-12T08:03:41.194Z,998.53
2019-01-12T08:04:51.007Z,998.62
2019-01-12T08:06:01.912Z,998.54
2019-01-12T08:07:11.977Z,998.6
2019-01-12T08:08:22.033Z,998.55
2019-01-12T08:09:32.100Z,998.66
2019-01-12T08:10:42.289Z,998.68
2019-01-12T08:11:52.378Z,998.67
2019-01-12T08:13:02.455Z,998.6
2019-01-12T08:14:12.527Z,998.55
2019-01-12T08:15:22.605Z,998.63
2019-01-12T08:16:32.430Z,998.65
2019-01-12T08:17:42.238Z,998.66
2019-01-12T08:18:52.300Z,998.61
2019-01-12T08:20:02.516Z,998.58
2019-01-12T08:21:12.634Z,998.6
2019-01-12T08:22:22.430Z,998.7
2019-01-12T08:23:32.472Z,998.62
2019-01-12T08:24:42.499Z,998.63
2019-01-12T08:25:52.402Z,998.57
2019-01-12T08:27:03.556Z,998.68
2019-01-12T08:28:13.645Z,998.65
2019-01-12T08:29:23.697Z,998.68
2019-01-12T08:30:33.788Z,998.69
2019-01-12T08:31:43.852Z,998.7
2019-01-12T08:32:53.659Z,998.67
2019-01-12T08:34:03.479Z,998.69
2019-01-12T08:35:13.557Z,998.62
2019-01-12T08:36:23.852Z,998.59
2019-01-12T08:37:33.912Z,998.68
2019-01-12T08:38:43.487Z,998.76
2019-01-12T08:39:53.299Z,998.76
2019-01-12T08:41:05.114Z,998.66
2019-01-12T08:42:15.214Z,998.6
2019-01-12T08:43:25.305Z,998.57
2019-01-12T08:44:34.852Z,998.68
2019-01-12T08:45:45.176Z,998.72
2019-01-12T08:46:55.590Z,998.67
2019-01-12T08:48:06.577Z,998.68
2019-01-12T08:49:16.947Z,998.67
2019-01-12T08:50:27.018Z,998.57
2019-01-12T08:51:37.135Z,998.63
2019-01-12T08:52:47.200Z,998.62
2019-01-12T08:53:57.256Z,998.57
2019-01-12T08:55:07.072Z,998.58
2019-01-12T08:56:17.143Z,998.62
2019-01-12T08:57:27.233Z,998.65
2019-01-12T08:58:37.056Z,998.67
2019-01-12T08:59:47.114Z,998.57
2019-01-12T09:00:56.927Z,998.69
2019-01-12T09:02:06.983Z,998.58
2019-01-12T09:03:17.087Z,998.66
2019-01-12T09:04:26.956Z,998.65
2019-01-12T09:05:44.039Z,998.66
2019-01-12T09:06:53.854Z,998.73
2019-01-12T09:08:03.937Z,998.72
2019-01-12T09:09:14.041Z,998.62
2019-01-12T09:10:24.135Z,998.71
2019-01-12T09:11:33.967Z,998.69
2019-01-12T09:12:43.812Z,998.64
2019-01-12T09:13:53.898Z,998.68
2019-01-12T09:15:04.668Z,998.68
2019-01-12T09:16:14.502Z,998.69
2019-01-12T09:17:24.556Z,998.71
2019-01-12T09:18:34.127Z,998.75
2019-01-12T09:19:44.198Z,998.73
2019-01-12T09:20:54.315Z,998.67
2019-01-12T09:22:04.395Z,998.62
2019-01-12T09:23:15.680Z,998.7
2019-01-12T09:24:25.763Z,998.6
2019-01-12T09:25:35.861Z,998.7
2019-01-12T09:26:45.716Z,998.75
2019-01-12T09:27:56.014Z,998.71
2019-01-12T09:29:08.433Z,998.65
2019-01-12T09:30:18.674Z,998.7
2019-01-12T09:31:28.762Z,998.65
2019-01-12T09:32:38.617Z,998.64
2019-01-12T09:33:48.465Z,998.65
2019-01-12T09:34:58.584Z,998.7
2019-01-12T09:36:10.693Z,998.68
2019-01-12T09:37:20.790Z,998.59
2019-01-12T09:38:31.011Z,998.64
2019-01-12T09:39:41.138Z,998.7
2019-01-12T09:40:51.232Z,998.64
2019-01-12T09:42:01.323Z,998.58
2019-01-12T09:43:11.219Z,998.49
2019-01-12T09:44:21.293Z,998.63
2019-01-12T09:45:31.380Z,998.56
2019-01-12T09:46:41.067Z,998.52
2019-01-12T09:47:51.164Z,998.54
2019-01-12T09:49:03.922Z,998.57
2019-01-12T09:50:14.011Z,998.51
2019-01-12T09:51:24.118Z,998.51
2019-01-12T09:52:34.227Z,998.46
2019-01-12T09:53:44.054Z,998.54
2019-01-12T09:54:54.179Z,998.51
2019-01-12T09:56:04.268Z,998.44
2019-01-12T09:57:14.414Z,998.37
2019-01-12T09:58:24.590Z,998.43
2019-01-12T09:59:34.481Z,998.42
2019-01-12T10:00:44.604Z,998.41
2019-01-12T10:01:54.758Z,998.47
2019-01-12T10:03:05.147Z,998.39
2019-01-12T10:04:15.231Z,998.54
2019-01-12T10:05:25.338Z,998.43
2019-01-12T10:08:03.352Z,998.42
2019-01-12T10:09:13.476Z,998.47
2019-01-12T10:10:23.594Z,998.5
2019-01-12T10:11:33.985Z,998.53
2019-01-12T10:12:44.251Z,998.52
2019-01-12T10:13:54.382Z,998.52
2019-01-12T10:15:04.500Z,998.44
2019-01-12T10:16:14.344Z,998.55
2019-01-12T10:17:24.451Z,998.51
2019-01-12T10:18:34.562Z,998.59
2019-01-12T10:19:44.398Z,998.55
2019-01-12T10:20:54.498Z,998.53
2019-01-12T10:22:04.370Z,998.63
2019-01-12T10:23:14.482Z,998.49
2019-01-12T10:24:24.322Z,998.59
2019-01-12T10:25:34.434Z,998.57
2019-01-12T10:26:44.275Z,998.62
2019-01-12T10:27:59.141Z,998.56
2019-01-12T10:29:09.422Z,998.51
2019-01-12T10:30:19.853Z,998.49
2019-01-12T10:31:29.980Z,998.44
2019-01-12T10:32:40.089Z,998.49
2019-01-12T10:33:50.409Z,998.47
2019-01-12T10:35:01.443Z,998.46
2019-01-12T10:36:11.608Z,998.37
2019-01-12T10:37:21.486Z,998.41
2019-01-12T10:38:31.563Z,998.4
2019-01-12T10:39:41.659Z,998.33
2019-01-12T10:40:53.347Z,998.41
2019-01-12T10:42:03.171Z,998.42
2019-01-12T10:43:13.494Z,998.41
2019-01-12T10:44:23.611Z,998.38
2019-01-12T10:45:33.699Z,998.48
2019-01-12T10:46:44.004Z,998.37
2019-01-12T10:47:54.077Z,998.45
2019-01-12T10:49:04.241Z,998.3
2019-01-12T10:50:14.305Z,998.37
2019-01-12T10:51:24.140Z,998.3
2019-01-12T10:52:34.202Z,998.37
2019-01-12T10:53:44.351Z,998.32
2019-01-12T10:54:54.474Z,998.33
2019-01-12T10:56:04.571Z,998.41
2019-01-12T10:57:14.415Z,998.32
2019-01-12T10:58:24.548Z,998.31
2019-01-12T10:59:34.459Z,998.33
2019-01-12T11:00:44.304Z,998.31
2019-01-12T11:01:54.380Z,998.25
2019-01-12T11:03:04.449Z,998.27
2019-01-12T11:04:14.538Z,998.3
2019-01-12T11:05:24.665Z,998.36
2019-01-12T11:06:34.750Z,998.33
2019-01-12T11:07:44.577Z,998.2
2019-01-12T11:08:55.162Z,998.24
2019-01-12T11:10:08.482Z,998.24
2019-01-12T11:11:18.803Z,998.2
2019-01-12T11:12:28.936Z,998.23
2019-01-12T11:13:39.037Z,998.14
2019-01-12T11:14:48.860Z,998.15
2019-01-12T11:15:58.397Z,998.16
2019-01-12T11:17:10.048Z,998.15
2019-01-12T11:18:20.126Z,998.2
2019-01-12T11:19:30.246Z,998.14
2019-01-12T11:20:40.344Z,998.18
2019-01-12T11:21:50.449Z,998.1
2019-01-12T11:23:02.910Z,998.12
2019-01-12T11:24:12.978Z,998.14
2019-01-12T11:25:23.062Z,998.08
2019-01-12T11:26:32.886Z,998.11
2019-01-12T11:27:42.977Z,998.13
2019-01-12T11:28:53.070Z,998.09
2019-01-12T11:30:03.229Z,998.12
2019-01-12T11:31:19.583Z,998.04
2019-01-12T11:32:29.806Z,998.09
2019-01-12T11:33:39.867Z,998.01
2019-01-12T11:34:49.756Z,998.07
2019-01-12T11:35:59.827Z,998.02
2019-01-12T11:37:09.916Z,998.05
2019-01-12T11:38:19.989Z,998.02
2019-01-12T11:39:30.050Z,997.97
2019-01-12T11:40:39.623Z,997.98
2019-01-12T11:41:49.715Z,998.04
2019-01-12T11:42:59.835Z,998.07
2019-01-12T11:44:09.399Z,998.04
2019-01-12T11:45:19.463Z,998.05
2019-01-12T11:46:29.283Z,998.06
2019-01-12T11:47:39.641Z,998.08
2019-01-12T11:48:49.739Z,997.99
2019-01-12T11:49:59.831Z,997.97
2019-01-12T11:51:09.908Z,997.91
2019-01-12T11:52:20.035Z,997.96
2019-01-12T11:53:30.093Z,997.91
2019-01-12T11:54:40.168Z,997.92
2019-01-12T11:55:50.252Z,997.97
2019-01-12T11:57:00.355Z,997.92
2019-01-12T11:58:10.488Z,997.95
2019-01-12T11:59:21.006Z,998.04
2019-01-12T12:00:31.339Z,997.9
2019-01-12T12:01:41.422Z,997.94
2019-01-12T12:02:51.510Z,997.91
2019-01-12T12:04:01.910Z,997.84
2019-01-12T12:05:11.991Z,997.78
2019-01-12T12:06:22.690Z,997.77
2019-01-12T12:07:33.030Z,997.86
2019-01-12T12:08:43.174Z,997.83
2019-01-12T12:09:53.304Z,997.83
2019-01-12T12:11:03.408Z,997.71
2019-01-12T12:12:13.553Z,997.74
2019-01-12T12:13:23.636Z,997.71
2019-01-12T12:14:33.700Z,997.8
2019-01-12T12:15:43.787Z,997.71
2019-01-12T12:16:54.097Z,997.6
2019-01-12T12:18:06.446Z,997.61
2019-01-12T12:19:16.529Z,997.61
2019-01-12T12:20:26.593Z,997.58
2019-01-12T12:21:36.721Z,997.65
2019-01-12T12:22:46.588Z,997.62
2019-01-12T12:23:56.674Z,997.6
2019-01-12T12:25:08.759Z,997.65
2019-01-12T12:26:18.847Z,997.47
2019-01-12T12:27:29.158Z,997.52
2019-01-12T12:28:38.994Z,997.49
2019-01-12T12:29:48.859Z,997.5
2019-01-12T12:30:58.957Z,997.56
2019-01-12T12:32:09.066Z,997.47
2019-01-12T12:33:19.568Z,997.44
2019-01-12T12:34:29.659Z,997.48
2019-01-12T12:35:39.778Z,997.42
2019-01-12T12:36:49.865Z,997.28
2019-01-12T12:38:00.023Z,997.41
2019-01-12T12:39:10.110Z,997.4
2019-01-12T12:40:20.193Z,997.4
2019-01-12T12:41:30.043Z,997.48
2019-01-12T12:42:39.862Z,997.42
2019-01-12T12:43:50.157Z,997.4
2019-01-12T12:45:01.477Z,997.34
2019-01-12T12:46:11.581Z,997.34
2019-01-12T12:47:21.426Z,997.37
2019-01-12T12:48:31.516Z,997.24
2019-01-12T12:49:41.561Z,997.28
2019-01-12T12:50:51.660Z,997.23
2019-01-12T12:52:01.510Z,997.2
2019-01-12T12:53:11.616Z,997.26
2019-01-12T12:54:21.697Z,997.21
2019-01-12T12:55:31.762Z,997.26
2019-01-12T12:56:41.867Z,997.27
2019-01-12T12:57:52.193Z,997.2
2019-01-12T12:59:02.272Z,997.21
2019-01-12T13:00:12.597Z,997.27
2019-01-12T13:01:22.969Z,997.24
2019-01-12T13:02:33.049Z,997.19
2019-01-12T13:03:42.614Z,997.11
2019-01-12T13:04:52.554Z,997.2
2019-01-12T13:06:02.432Z,997.2
2019-01-12T13:07:12.544Z,997.17
2019-01-12T13:08:22.419Z,997.22
2019-01-12T13:09:32.487Z,997.24
2019-01-12T13:10:42.666Z,997.16
2019-01-12T13:11:52.813Z,997.1
2019-01-12T13:13:03.151Z,997.14
2019-01-12T13:14:13.298Z,997.12
2019-01-12T13:15:23.477Z,997.06
2019-01-12T13:16:33.647Z,997.05
2019-01-12T13:17:43.734Z,997.09
2019-01-12T13:18:54.010Z,996.97
2019-01-12T13:20:04.539Z,997.01
2019-01-12T13:21:14.623Z,996.97
2019-01-12T13:22:24.461Z,996.97
2019-01-12T13:23:34.557Z,996.98
2019-01-12T13:24:44.628Z,996.91
2019-01-12T13:25:54.466Z,996.95
2019-01-12T13:27:05.337Z,997.01
2019-01-12T13:28:15.415Z,996.89
2019-01-12T13:29:25.490Z,996.9
2019-01-12T13:30:35.588Z,996.97
2019-01-12T13:31:45.680Z,996.94
2019-01-12T13:32:55.769Z,996.95
2019-01-12T13:34:06.770Z,997.02
2019-01-12T13:35:16.833Z,996.94
2019-01-12T13:36:26.983Z,997.01
2019-01-12T13:37:36.850Z,996.99
2019-01-12T13:38:46.933Z,996.97
2019-01-12T13:39:57.021Z,996.94
2019-01-12T13:41:07.118Z,997.01
2019-01-12T13:42:17.439Z,996.99
2019-01-12T13:43:27.760Z,996.98
2019-01-12T13:44:37.847Z,997.01
2019-01-12T13:45:47.936Z,996.99
2019-01-12T13:46:58.072Z,997.03
2019-01-12T13:48:10.382Z,997
2019-01-12T13:49:20.495Z,997.01
2019-01-12T13:50:30.586Z,996.91
2019-01-12T13:51:40.642Z,996.93
2019-01-12T13:52:50.760Z,996.88
2019-01-12T13:54:00.869Z,996.87
2019-01-12T13:55:11.054Z,996.81
2019-01-12T13:56:21.342Z,996.82
2019-01-12T13:57:31.165Z,996.79
2019-01-12T13:58:47.816Z,996.87
2019-01-12T13:59:57.892Z,996.84
2019-01-12T14:01:08.422Z,996.88
2019-01-12T14:02:18.297Z,996.78
2019-01-12T14:03:28.444Z,996.77
2019-01-12T14:04:38.739Z,996.81
2019-01-12T14:05:48.558Z,996.76
2019-01-12T14:06:58.704Z,996.85
2019-01-12T14:08:10.977Z,996.89
2019-01-12T14:09:21.310Z,996.79
2019-01-12T14:10:31.429Z,996.84
2019-01-12T14:11:41.260Z,996.92
2019-01-12T14:12:51.324Z,996.87
2019-01-12T14:14:01.150Z,996.87
2019-01-12T14:15:11.174Z,996.83
2019-01-12T14:16:21.000Z,996.77
2019-01-12T14:17:31.079Z,996.77
2019-01-12T14:18:40.967Z,996.81
2019-01-12T14:19:50.860Z,996.87
2019-01-12T14:21:01.626Z,996.8
2019-01-12T14:22:11.652Z,996.86
2019-01-12T14:23:21.741Z,996.86
2019-01-12T14:24:31.827Z,996.84
2019-01-12T14:25:41.477Z,996.9
2019-01-12T14:26:51.566Z,996.82
2019-01-12T14:28:03.215Z,996.85
2019-01-12T14:29:13.013Z,996.88
2019-01-12T14:30:23.182Z,996.82
2019-01-12T14:31:33.275Z,996.88
2019-01-12T14:32:43.607Z,996.81
2019-01-12T14:33:53.722Z,996.81
2019-01-12T14:35:03.855Z,996.8
2019-01-12T14:36:13.814Z,996.83
2019-01-12T14:37:23.628Z,996.79
2019-01-12T14:38:33.953Z,996.87
2019-01-12T14:39:44.433Z,996.78
2019-01-12T14:40:54.801Z,996.77
2019-01-12T14:42:04.935Z,996.8
2019-01-12T14:43:14.754Z,996.83
2019-01-12T14:44:25.055Z,996.9
2019-01-12T14:45:34.913Z,996.83
2019-01-12T14:46:44.996Z,996.79
2019-01-12T14:47:55.146Z,996.74
2019-01-12T14:49:05.281Z,996.7
2019-01-12T14:50:15.544Z,996.7
2019-01-12T14:51:25.891Z,996.73
2019-01-12T14:52:36.051Z,996.63
2019-01-12T14:53:46.213Z,996.66
2019-01-12T14:54:56.320Z,996.68
2019-01-12T14:56:06.507Z,996.61
2019-01-12T14:57:16.718Z,996.67
2019-01-12T14:58:26.885Z,996.67
2019-01-12T14:59:36.771Z,996.67
2019-01-12T15:00:46.972Z,996.71
2019-01-12T15:01:57.162Z,996.65
2019-01-12T15:03:07.061Z,996.55
2019-01-12T15:04:16.990Z,996.55
2019-01-12T15:05:27.126Z,996.59
2019-01-12T15:06:39.042Z,996.54
2019-01-12T15:07:49.198Z,996.42
2019-01-12T15:08:59.328Z,996.48
2019-01-12T15:10:11.929Z,996.48
2019-01-12T15:11:23.762Z,996.37